createdAt,value
2018-05-25T00:00:19.463Z,0
2018-05-25T00:01:29.491Z,0
2018-05-25T00:02:39.231Z,0
2018-05-25T00:03:48.707Z,0
2018-05-25T00:04:58.724Z,0
2018-05-25T00:06:08.478Z,0
2018-05-25T00:07:18.221Z,0
2018-05-25T00:08:27.966Z,0
2018-05-25T00:09:37.764Z,0
2018-05-25T00:10:47.528Z,0
2018-05-25T00:11:57.542Z,0
2018-05-25T00:13:07.288Z,0
2018-05-25T00:14:17.303Z,0
2018-05-25T00:15:26.804Z,0
2018-05-25T00:16:36.815Z,0
2018-05-25T00:17:46.562Z,0
2018-05-25T00:18:56.309Z,0
2018-05-25T00:20:06.325Z,0
2018-05-25T00:21:16.072Z,0
2018-05-25T00:22:25.550Z,0
2018-05-25T00:23:35.563Z,0
2018-05-25T00:24:45.624Z,0
2018-05-25T00:25:55.373Z,0
2018-05-25T00:27:05.389Z,0
2018-05-25T00:28:15.133Z,0
2018-05-25T00:29:25.142Z,0
2018-05-25T00:30:35.155Z,0
2018-05-25T00:31:45.167Z,0
2018-05-25T00:32:55.183Z,0
2018-05-25T00:34:05.198Z,0
2018-05-25T00:35:14.138Z,0
2018-05-25T00:36:24.216Z,0
2018-05-25T00:37:34.227Z,0
2018-05-25T00:38:43.971Z,0
2018-05-25T00:39:53.715Z,0
2018-05-25T00:41:03.462Z,0
2018-05-25T00:42:13.203Z,0
2018-05-25T00:43:23.228Z,0
2018-05-25T00:44:32.973Z,0
2018-05-25T00:45:42.720Z,0
2018-05-25T00:46:52.220Z,0
2018-05-25T00:48:01.700Z,0
2018-05-25T00:49:11.180Z,0
2018-05-25T00:50:20.994Z,0
2018-05-25T00:51:30.431Z,0
2018-05-25T00:52:40.459Z,0
2018-05-25T00:53:50.468Z,0
2018-05-25T00:55:00.480Z,0
2018-05-25T00:56:10.509Z,0
2018-05-25T00:57:20.520Z,0
2018-05-25T00:58:30.539Z,0
2018-05-25T00:59:40.592Z,0
2018-05-25T01:00:50.601Z,0
2018-05-25T01:02:00.366Z,0
2018-05-25T01:03:09.842Z,0
2018-05-25T01:04:19.862Z,0
2018-05-25T01:05:29.338Z,0
2018-05-25T01:06:38.819Z,0
2018-05-25T01:07:48.562Z,0
2018-05-25T01:08:58.576Z,0
2018-05-25T01:10:08.330Z,0
2018-05-25T01:11:18.695Z,0
2018-05-25T01:12:28.724Z,0
2018-05-25T01:13:38.787Z,0
2018-05-25T01:14:48.537Z,0
2018-05-25T01:15:58.554Z,0
2018-05-25T01:17:08.302Z,0
2018-05-25T01:18:18.318Z,0
2018-05-25T01:19:28.335Z,0
2018-05-25T01:20:38.082Z,0
2018-05-25T01:21:48.093Z,0
2018-05-25T01:22:57.842Z,0
2018-05-25T01:24:07.866Z,0
2018-05-25T01:25:17.610Z,0
2018-05-25T01:26:27.626Z,0
2018-05-25T01:27:37.642Z,0
2018-05-25T01:28:47.665Z,0
2018-05-25T01:29:57.672Z,0
2018-05-25T01:31:07.421Z,0
2018-05-25T01:32:17.431Z,0
2018-05-25T01:33:27.456Z,0
2018-05-25T01:34:37.470Z,0
2018-05-25T01:35:47.212Z,0
2018-05-25T01:36:57.227Z,0
2018-05-25T01:38:06.705Z,0
2018-05-25T01:39:16.453Z,0
2018-05-25T01:40:26.470Z,0
2018-05-25T01:41:35.953Z,0
2018-05-25T01:42:45.974Z,0
2018-05-25T01:43:55.717Z,0
2018-05-25T01:45:05.734Z,0
2018-05-25T01:46:15.215Z,0
2018-05-25T01:47:25.230Z,0
2018-05-25T01:48:35.236Z,0
2018-05-25T01:49:44.975Z,0
2018-05-25T01:50:54.983Z,0
2018-05-25T01:52:04.458Z,0
2018-05-25T01:53:14.463Z,0
2018-05-25T01:54:24.207Z,0
2018-05-25T01:55:34.267Z,0
2018-05-25T01:56:44.285Z,5
2018-05-25T01:57:54.306Z,5
2018-05-25T01:59:04.315Z,5
2018-05-25T02:00:14.331Z,5
2018-05-25T02:01:24.349Z,5
2018-05-25T02:02:34.363Z,5
2018-05-25T02:03:44.103Z,5
2018-05-25T02:04:54.117Z,5
2018-05-25T02:06:03.597Z,5
2018-05-25T02:07:13.348Z,5
2018-05-25T02:08:23.355Z,5
2018-05-25T02:09:33.365Z,10
2018-05-25T02:10:42.573Z,10
2018-05-25T02:11:51.786Z,10
2018-05-25T02:13:01.531Z,10
2018-05-25T02:14:11.549Z,10
2018-05-25T02:15:21.567Z,10
2018-05-25T02:16:31.579Z,10
2018-05-25T02:17:41.589Z,10
2018-05-25T02:18:50.799Z,15
2018-05-25T02:20:00.581Z,15
2018-05-25T02:21:10.322Z,15
2018-05-25T02:22:20.065Z,15
2018-05-25T02:23:29.809Z,15
2018-05-25T02:24:39.817Z,20
2018-05-25T02:25:49.827Z,20
2018-05-25T02:26:59.889Z,20
2018-05-25T02:28:09.095Z,20
2018-05-25T02:29:18.836Z,20
2018-05-25T02:30:28.851Z,25
2018-05-25T02:31:38.862Z,25
2018-05-25T02:32:48.615Z,25
2018-05-25T02:33:58.090Z,25
2018-05-25T02:35:08.109Z,30
2018-05-25T02:36:17.853Z,30
2018-05-25T02:37:27.679Z,30
2018-05-25T02:38:37.851Z,30
2018-05-25T02:39:47.894Z,30
2018-05-25T02:40:57.648Z,35
2018-05-25T02:42:07.404Z,35
2018-05-25T02:43:17.155Z,35
2018-05-25T02:44:27.192Z,40
2018-05-25T02:45:37.212Z,40
2018-05-25T02:46:46.968Z,40
2018-05-25T02:47:56.983Z,40
2018-05-25T02:49:06.190Z,45
2018-05-25T02:50:15.674Z,45
2018-05-25T02:51:25.427Z,45
2018-05-25T02:52:35.248Z,45
2018-05-25T02:53:44.998Z,45
2018-05-25T02:54:54.736Z,45
2018-05-25T02:56:04.746Z,45
2018-05-25T02:57:14.597Z,50
2018-05-25T02:58:24.044Z,50
2018-05-25T02:59:33.526Z,50
2018-05-25T03:03:31.059Z,55
2018-05-25T03:04:40.806Z,55
2018-05-25T03:05:50.826Z,60
2018-05-25T03:07:00.568Z,60
2018-05-25T03:08:10.066Z,60
2018-05-25T03:09:19.824Z,60
2018-05-25T03:10:29.044Z,65
2018-05-25T03:11:39.061Z,65
2018-05-25T03:12:49.085Z,65
2018-05-25T03:13:59.098Z,65
2018-05-25T03:15:08.855Z,70
2018-05-25T03:16:18.332Z,70
2018-05-25T03:17:28.077Z,70
2018-05-25T03:18:38.106Z,75
2018-05-25T03:19:47.589Z,75
2018-05-25T03:20:57.653Z,75
2018-05-25T03:22:07.672Z,75
2018-05-25T03:23:17.689Z,80
2018-05-25T03:24:27.699Z,80
2018-05-25T03:25:37.708Z,80
2018-05-25T03:26:47.468Z,80
2018-05-25T03:27:57.484Z,85
2018-05-25T03:29:06.964Z,85
2018-05-25T03:30:16.712Z,85
2018-05-25T03:31:26.742Z,85
2018-05-25T03:32:36.496Z,85
2018-05-25T03:33:46.509Z,85
2018-05-25T03:34:56.519Z,85
2018-05-25T03:36:05.998Z,85
2018-05-25T03:37:15.213Z,90
2018-05-25T03:38:24.685Z,90
2018-05-25T03:39:34.693Z,90
2018-05-25T03:40:44.445Z,90
2018-05-25T03:41:54.459Z,95
2018-05-25T03:43:04.206Z,95
2018-05-25T03:44:14.218Z,95
2018-05-25T03:45:24.222Z,95
2018-05-25T03:46:33.969Z,100
2018-05-25T03:47:43.979Z,100
2018-05-25T03:48:53.991Z,100
2018-05-25T03:50:03.734Z,100
2018-05-25T03:51:13.482Z,105
2018-05-25T03:52:23.230Z,105
2018-05-25T03:53:32.712Z,105
2018-05-25T03:54:42.723Z,105
2018-05-25T03:55:52.746Z,105
2018-05-25T03:57:02.754Z,110
2018-05-25T03:58:12.240Z,110
2018-05-25T03:59:21.998Z,110
2018-05-25T04:00:32.010Z,110
2018-05-25T04:01:42.227Z,110
2018-05-25T04:02:52.040Z,115
2018-05-25T04:04:02.080Z,115
2018-05-25T04:05:12.155Z,115
2018-05-25T04:06:22.173Z,115
2018-05-25T04:07:32.185Z,115
2018-05-25T04:08:42.198Z,120
2018-05-25T04:09:52.210Z,120
2018-05-25T04:11:01.951Z,120
2018-05-25T04:12:11.161Z,120
2018-05-25T04:13:21.175Z,125
2018-05-25T04:14:30.951Z,125
2018-05-25T04:15:40.707Z,125
2018-05-25T04:16:50.187Z,120
2018-05-25T04:17:59.936Z,120
2018-05-25T04:19:09.683Z,120
2018-05-25T04:20:19.703Z,125
2018-05-25T04:21:29.457Z,125
2018-05-25T04:22:39.465Z,125
2018-05-25T04:23:49.214Z,125
2018-05-25T04:24:58.740Z,125
2018-05-25T04:26:08.218Z,130
2018-05-25T04:27:17.977Z,130
2018-05-25T04:28:27.992Z,130
2018-05-25T04:29:38.006Z,130
2018-05-25T04:30:48.022Z,130
2018-05-25T04:31:58.036Z,135
2018-05-25T04:33:08.050Z,135
2018-05-25T04:34:18.065Z,140
2018-05-25T04:35:28.080Z,140
2018-05-25T04:36:37.827Z,140
2018-05-25T04:37:47.836Z,140
2018-05-25T04:38:57.582Z,145
2018-05-25T04:40:07.643Z,145
2018-05-25T04:41:17.668Z,145
2018-05-25T04:42:27.153Z,145
2018-05-25T04:43:36.629Z,145
2018-05-25T04:44:46.113Z,150
2018-05-25T04:45:55.603Z,150
2018-05-25T04:47:05.348Z,150
2018-05-25T04:48:15.091Z,150
2018-05-25T04:49:24.836Z,150
2018-05-25T04:50:34.584Z,150
2018-05-25T04:51:44.362Z,150
2018-05-25T04:52:53.841Z,150
2018-05-25T04:54:03.602Z,150
2018-05-25T04:55:13.618Z,150
2018-05-25T04:56:23.370Z,150
2018-05-25T04:57:33.385Z,150
2018-05-25T04:58:43.130Z,150
2018-05-25T04:59:52.341Z,150
2018-05-25T05:01:02.083Z,150
2018-05-25T05:02:12.106Z,150
2018-05-25T05:03:22.142Z,150
2018-05-25T05:04:31.364Z,150
2018-05-25T05:05:41.404Z,155
2018-05-25T05:06:51.422Z,155
2018-05-25T05:08:00.899Z,155
2018-05-25T05:09:10.646Z,155
2018-05-25T05:10:20.391Z,155
2018-05-25T05:11:30.408Z,150
2018-05-25T05:12:40.161Z,155
2018-05-25T05:13:49.105Z,155
2018-05-25T05:14:58.990Z,155
2018-05-25T05:16:08.745Z,150
2018-05-25T05:17:18.761Z,150
2018-05-25T05:18:28.774Z,155
2018-05-25T05:19:38.824Z,155
2018-05-25T05:20:48.851Z,155
2018-05-25T05:21:58.858Z,155
2018-05-25T05:23:09.149Z,155
2018-05-25T05:24:18.578Z,155
2018-05-25T05:25:28.584Z,155
2018-05-25T05:26:38.106Z,155
2018-05-25T05:27:47.600Z,155
2018-05-25T05:28:57.088Z,155
2018-05-25T05:30:06.834Z,155
2018-05-25T05:31:16.583Z,155
2018-05-25T05:32:26.333Z,160
2018-05-25T05:33:36.469Z,160
2018-05-25T05:34:46.231Z,160
2018-05-25T05:35:55.993Z,160
2018-05-25T05:37:06.011Z,160
2018-05-25T05:38:15.491Z,160
2018-05-25T05:39:25.552Z,160
2018-05-25T05:40:35.304Z,160
2018-05-25T05:41:45.051Z,160
2018-05-25T05:42:55.109Z,160
2018-05-25T05:44:05.122Z,160
2018-05-25T05:45:14.868Z,160
2018-05-25T05:46:24.902Z,160
2018-05-25T05:47:34.919Z,160
2018-05-25T05:48:44.666Z,160
2018-05-25T05:49:54.673Z,160
2018-05-25T05:51:04.681Z,165
2018-05-25T05:52:14.700Z,165
2018-05-25T05:53:24.717Z,165
2018-05-25T05:54:34.201Z,165
2018-05-25T05:55:44.215Z,165
2018-05-25T05:56:54.231Z,160
2018-05-25T05:58:03.972Z,165
2018-05-25T05:59:14.002Z,165
2018-05-25T06:00:24.026Z,165
2018-05-25T06:01:33.772Z,165
2018-05-25T06:02:43.255Z,165
2018-05-25T06:03:53.002Z,165
2018-05-25T06:05:03.020Z,165
2018-05-25T06:06:12.499Z,160
2018-05-25T06:07:21.984Z,165
2018-05-25T06:08:32.005Z,165
2018-05-25T06:09:42.018Z,170
2018-05-25T06:10:52.047Z,170
2018-05-25T06:12:01.790Z,175
2018-05-25T06:13:11.544Z,170
2018-05-25T06:14:21.561Z,175
2018-05-25T06:15:31.041Z,175
2018-05-25T06:16:40.523Z,175
2018-05-25T06:17:50.278Z,175
2018-05-25T06:19:00.030Z,175
2018-05-25T06:20:09.922Z,175
2018-05-25T06:21:19.406Z,175
2018-05-25T06:22:29.165Z,180
2018-05-25T06:23:38.660Z,180
2018-05-25T06:24:48.680Z,180
2018-05-25T06:25:58.163Z,180
2018-05-25T06:27:08.019Z,180
2018-05-25T06:28:17.771Z,180
2018-05-25T06:29:27.791Z,180
2018-05-25T06:30:37.276Z,180
2018-05-25T06:31:47.295Z,180
2018-05-25T06:32:57.090Z,180
2018-05-25T06:34:07.124Z,180
2018-05-25T06:35:17.150Z,180
2018-05-25T06:36:26.900Z,180
2018-05-25T06:37:36.382Z,180
2018-05-25T06:38:46.138Z,180
2018-05-25T06:39:56.157Z,180
2018-05-25T06:41:05.912Z,185
2018-05-25T06:42:15.663Z,180
2018-05-25T06:43:25.418Z,180
2018-05-25T06:44:35.691Z,185
2018-05-25T06:45:45.440Z,185
2018-05-25T06:46:54.936Z,185
2018-05-25T06:48:04.419Z,185
2018-05-25T06:49:13.908Z,185
2018-05-25T06:50:23.665Z,185
2018-05-25T06:51:33.425Z,185
2018-05-25T06:52:43.200Z,185
2018-05-25T06:53:52.950Z,185
2018-05-25T06:55:02.720Z,185
2018-05-25T06:56:12.484Z,185
2018-05-25T06:57:22.501Z,185
2018-05-25T06:58:32.247Z,185
2018-05-25T06:59:42.001Z,185
2018-05-25T07:00:51.753Z,190
2018-05-25T07:02:01.777Z,185
2018-05-25T07:03:11.803Z,185
2018-05-25T07:04:21.561Z,190
2018-05-25T07:05:31.322Z,190
2018-05-25T07:06:41.077Z,190
2018-05-25T07:07:51.091Z,185
2018-05-25T07:09:01.109Z,190
2018-05-25T07:10:11.133Z,185
2018-05-25T07:11:20.614Z,190
2018-05-25T07:12:30.633Z,190
2018-05-25T07:13:40.382Z,185
2018-05-25T07:14:50.130Z,190
2018-05-25T07:16:00.148Z,190
2018-05-25T07:17:09.820Z,190
2018-05-25T07:18:19.832Z,190
2018-05-25T07:19:29.313Z,190
2018-05-25T07:20:39.327Z,190
2018-05-25T07:21:49.345Z,190
2018-05-25T07:22:58.562Z,190
2018-05-25T07:24:08.580Z,190
2018-05-25T07:25:18.613Z,195
2018-05-25T07:26:28.626Z,195
2018-05-25T07:27:38.380Z,195
2018-05-25T07:28:48.139Z,195
2018-05-25T07:29:57.886Z,195
2018-05-25T07:31:07.104Z,195
2018-05-25T07:32:16.852Z,195
2018-05-25T07:33:26.711Z,195
2018-05-25T07:34:36.154Z,195
2018-05-25T07:35:46.177Z,195
2018-05-25T07:36:56.192Z,195
2018-05-25T07:38:05.941Z,195
2018-05-25T07:39:15.749Z,200
2018-05-25T07:40:25.504Z,200
2018-05-25T07:41:34.716Z,200
2018-05-25T07:42:44.197Z,200
2018-05-25T07:43:53.947Z,200
2018-05-25T07:45:03.427Z,200
2018-05-25T07:46:13.176Z,200
2018-05-25T07:47:22.656Z,200
2018-05-25T07:48:32.671Z,200
2018-05-25T07:49:42.421Z,200
2018-05-25T07:50:52.172Z,200
2018-05-25T07:52:01.660Z,200
2018-05-25T07:53:10.895Z,205
2018-05-25T07:54:20.952Z,205
2018-05-25T07:55:30.711Z,205
2018-05-25T07:56:40.457Z,205
2018-05-25T07:57:50.219Z,205
2018-05-25T07:58:59.966Z,205
2018-05-25T08:00:09.446Z,205
2018-05-25T08:01:19.463Z,205
2018-05-25T08:02:29.231Z,205
2018-05-25T08:03:38.988Z,205
2018-05-25T08:04:49.003Z,205
2018-05-25T08:05:59.023Z,210
2018-05-25T08:07:08.776Z,210
2018-05-25T08:08:18.787Z,210
2018-05-25T08:09:28.812Z,210
2018-05-25T08:10:38.833Z,210
2018-05-25T08:11:48.326Z,215
2018-05-25T08:12:58.354Z,215
2018-05-25T08:14:08.108Z,215
2018-05-25T08:15:17.066Z,215
2018-05-25T08:16:27.087Z,215
2018-05-25T08:17:36.834Z,215
2018-05-25T08:18:46.852Z,215
2018-05-25T08:19:56.600Z,215
2018-05-25T08:21:06.087Z,220
2018-05-25T08:22:15.590Z,220
2018-05-25T08:23:25.070Z,220
2018-05-25T08:24:34.842Z,220
2018-05-25T08:25:44.319Z,220
2018-05-25T08:26:54.121Z,220
2018-05-25T08:28:03.873Z,225
2018-05-25T08:29:13.466Z,220
2018-05-25T08:30:23.930Z,220
2018-05-25T08:31:33.695Z,225
2018-05-25T08:32:43.754Z,225
2018-05-25T08:33:53.771Z,230
2018-05-25T08:35:03.602Z,225
2018-05-25T08:36:13.137Z,225
2018-05-25T08:37:23.156Z,225
2018-05-25T08:38:32.992Z,225
2018-05-25T08:39:42.799Z,225
2018-05-25T08:40:52.815Z,225
2018-05-25T08:42:02.834Z,225
2018-05-25T08:43:12.862Z,230
2018-05-25T08:44:22.881Z,235
2018-05-25T08:45:32.630Z,230
2018-05-25T08:46:42.403Z,230
2018-05-25T08:47:52.155Z,230
2018-05-25T08:49:01.904Z,230
2018-05-25T08:50:11.521Z,230
2018-05-25T08:51:21.150Z,230
2018-05-25T08:52:30.631Z,235
2018-05-25T08:53:39.845Z,235
2018-05-25T08:54:49.606Z,240
2018-05-25T08:55:59.643Z,235
2018-05-25T08:57:09.713Z,235
2018-05-25T08:58:19.460Z,235
2018-05-25T08:59:28.945Z,235
2018-05-25T09:00:38.970Z,240
2018-05-25T09:01:48.461Z,240
2018-05-25T09:02:58.294Z,240
2018-05-25T09:04:07.779Z,240
2018-05-25T09:05:17.795Z,240
2018-05-25T09:06:27.548Z,240
2018-05-25T09:07:37.292Z,240
2018-05-25T09:08:47.313Z,240
2018-05-25T09:09:57.348Z,245
2018-05-25T09:11:06.845Z,245
2018-05-25T09:12:16.337Z,250
2018-05-25T09:13:26.365Z,245
2018-05-25T09:14:36.112Z,245
2018-05-25T09:15:45.595Z,245
2018-05-25T09:16:55.614Z,245
2018-05-25T09:18:05.633Z,245
2018-05-25T09:19:15.396Z,245
2018-05-25T09:20:24.879Z,245
2018-05-25T09:21:34.906Z,245
2018-05-25T09:22:44.391Z,245
2018-05-25T09:23:54.418Z,250
2018-05-25T09:25:04.179Z,250
2018-05-25T09:26:14.246Z,250
2018-05-25T09:27:24.010Z,250
2018-05-25T09:28:34.027Z,250
2018-05-25T09:29:43.788Z,250
2018-05-25T09:30:53.986Z,255
2018-05-25T09:32:03.748Z,260
2018-05-25T09:33:13.234Z,255
2018-05-25T09:34:23.004Z,255
2018-05-25T09:35:32.805Z,255
2018-05-25T09:36:42.569Z,255
2018-05-25T09:37:52.322Z,255
2018-05-25T09:39:02.088Z,255
2018-05-25T09:40:12.130Z,255
2018-05-25T09:41:22.148Z,265
2018-05-25T09:42:31.905Z,260
2018-05-25T09:43:41.121Z,260
2018-05-25T09:44:50.872Z,260
2018-05-25T09:46:00.631Z,265
2018-05-25T09:47:10.653Z,260
2018-05-25T09:48:20.674Z,260
2018-05-25T09:49:30.425Z,265
2018-05-25T09:50:40.178Z,265
2018-05-25T09:51:50.205Z,265
2018-05-25T09:53:00.225Z,265
2018-05-25T09:54:10.249Z,265
2018-05-25T09:55:20.268Z,265
2018-05-25T09:56:30.289Z,265
2018-05-25T09:57:39.775Z,270
2018-05-25T09:58:49.260Z,270
2018-05-25T09:59:59.273Z,270
2018-05-25T10:01:08.764Z,270
2018-05-25T10:02:18.782Z,275
2018-05-25T10:03:28.265Z,275
2018-05-25T10:04:38.030Z,275
2018-05-25T10:05:48.099Z,275
2018-05-25T10:06:58.122Z,275
2018-05-25T10:08:07.343Z,275
2018-05-25T10:09:17.096Z,280
2018-05-25T10:10:27.113Z,280
2018-05-25T10:11:36.886Z,285
2018-05-25T10:12:46.916Z,285
2018-05-25T10:13:56.135Z,285
2018-05-25T10:15:06.166Z,290
2018-05-25T10:16:15.926Z,290
2018-05-25T10:17:25.951Z,295
2018-05-25T10:18:35.712Z,290
2018-05-25T10:19:45.488Z,295
2018-05-25T10:20:54.977Z,295
2018-05-25T10:22:04.473Z,295
2018-05-25T10:23:14.500Z,295
2018-05-25T10:24:24.532Z,300
2018-05-25T10:25:34.014Z,300
2018-05-25T10:26:43.777Z,305
2018-05-25T10:27:53.268Z,305
2018-05-25T10:29:02.755Z,310
2018-05-25T10:30:12.788Z,310
2018-05-25T10:31:22.013Z,315
2018-05-25T10:32:32.037Z,315
2018-05-25T10:33:41.785Z,315
2018-05-25T10:34:51.541Z,320
2018-05-25T10:36:01.293Z,320
2018-05-25T10:37:11.092Z,325
2018-05-25T10:38:21.115Z,325
2018-05-25T10:39:30.605Z,325
2018-05-25T10:40:40.633Z,325
2018-05-25T10:41:50.413Z,325
2018-05-25T10:42:59.992Z,330
2018-05-25T10:44:10.024Z,330
2018-05-25T10:45:20.045Z,330
2018-05-25T10:46:29.798Z,330
2018-05-25T10:47:39.821Z,335
2018-05-25T10:48:50.062Z,335
2018-05-25T10:50:00.093Z,340
2018-05-25T10:51:09.851Z,340
2018-05-25T10:52:19.873Z,340
2018-05-25T10:53:29.894Z,345
2018-05-25T10:54:39.921Z,345
2018-05-25T10:55:49.406Z,345
2018-05-25T10:56:59.157Z,350
2018-05-25T10:58:08.915Z,345
2018-05-25T10:59:18.935Z,345
2018-05-25T11:00:28.425Z,345
2018-05-25T11:01:37.925Z,350
2018-05-25T11:02:47.961Z,345
2018-05-25T11:03:58.051Z,345
2018-05-25T11:05:08.069Z,350
2018-05-25T11:06:17.553Z,345
2018-05-25T11:07:27.049Z,345
2018-05-25T11:08:37.067Z,345
2018-05-25T11:09:46.824Z,340
2018-05-25T11:10:56.580Z,345
2018-05-25T11:12:06.340Z,345
2018-05-25T11:13:16.372Z,345
2018-05-25T11:14:26.398Z,345
2018-05-25T11:15:35.892Z,345
2018-05-25T11:16:45.916Z,350
2018-05-25T11:17:55.935Z,350
2018-05-25T11:19:05.699Z,355
2018-05-25T11:20:15.456Z,355
2018-05-25T11:21:25.475Z,355
2018-05-25T11:22:34.704Z,360
2018-05-25T11:23:44.727Z,365
2018-05-25T11:24:54.752Z,365
2018-05-25T11:26:04.250Z,370
2018-05-25T11:27:14.447Z,380
2018-05-25T11:28:24.214Z,425
2018-05-25T11:29:33.434Z,1085
2018-05-25T11:30:42.935Z,2345
2018-05-25T11:31:52.957Z,2405
2018-05-25T11:33:02.980Z,2410
2018-05-25T11:34:12.468Z,2525
2018-05-25T11:35:21.956Z,2530
2018-05-25T11:36:31.717Z,2685
2018-05-25T11:37:41.738Z,2965
2018-05-25T11:38:51.770Z,2905
2018-05-25T11:40:01.530Z,2960
2018-05-25T11:41:11.030Z,2840
2018-05-25T11:42:21.056Z,2915
2018-05-25T11:43:30.814Z,2845
2018-05-25T11:44:40.852Z,2470
2018-05-25T11:45:50.878Z,2090
2018-05-25T11:47:00.907Z,1960
2018-05-25T11:48:10.958Z,2065
2018-05-25T11:49:20.994Z,2165
2018-05-25T11:50:31.024Z,2485
2018-05-25T11:51:41.056Z,2700
2018-05-25T11:52:50.813Z,2380
2018-05-25T11:54:00.578Z,2560
2018-05-25T11:55:10.612Z,2900
2018-05-25T11:56:20.375Z,2825
2018-05-25T11:57:30.136Z,2730
2018-05-25T11:58:39.361Z,2890
2018-05-25T11:59:49.124Z,3020
2018-05-25T12:00:58.350Z,2980
2018-05-25T12:02:08.127Z,2875
2018-05-25T12:03:17.889Z,2705
2018-05-25T12:04:27.397Z,2560
2018-05-25T12:05:36.894Z,2395
2018-05-25T12:06:46.815Z,2465
2018-05-25T12:07:56.317Z,2660
2018-05-25T12:09:06.358Z,2735
2018-05-25T12:10:16.128Z,2545
2018-05-25T12:11:26.162Z,2235
2018-05-25T12:12:36.210Z,2230
2018-05-25T12:13:46.249Z,2215
2018-05-25T12:14:55.749Z,2210
2018-05-25T12:16:05.782Z,2450
2018-05-25T12:17:15.810Z,2485
2018-05-25T12:18:25.848Z,2380
2018-05-25T12:19:35.887Z,2430
2018-05-25T12:20:45.664Z,2735
2018-05-25T12:21:55.712Z,2800
2018-05-25T12:23:05.759Z,2885
2018-05-25T12:24:15.804Z,2930
2018-05-25T12:25:25.043Z,2720
2018-05-25T12:26:34.815Z,2740
2018-05-25T12:27:44.583Z,2765
2018-05-25T12:28:54.613Z,2655
2018-05-25T12:30:04.112Z,2560
2018-05-25T12:31:13.612Z,2550
2018-05-25T12:32:23.646Z,2685
2018-05-25T12:33:33.691Z,2665
2018-05-25T12:34:42.969Z,2755
2018-05-25T12:35:53.011Z,2625
2018-05-25T12:37:03.049Z,2395
2018-05-25T12:38:12.824Z,2465
2018-05-25T12:39:22.868Z,2695
2018-05-25T12:40:32.723Z,2680
2018-05-25T12:41:42.497Z,2605
2018-05-25T12:42:52.265Z,2630
2018-05-25T12:44:01.764Z,2655
2018-05-25T12:45:11.005Z,2565
2018-05-25T12:46:20.783Z,2570
2018-05-25T12:47:30.285Z,2670
2018-05-25T12:48:39.785Z,2480
2018-05-25T12:49:49.553Z,2505
2018-05-25T12:50:59.057Z,2495
2018-05-25T12:52:08.568Z,2565
2018-05-25T12:53:18.608Z,2570
2018-05-25T12:54:28.107Z,2510
2018-05-25T12:55:37.876Z,2465
2018-05-25T12:56:47.911Z,2315
2018-05-25T12:57:57.702Z,2220
2018-05-25T12:59:07.742Z,2190
2018-05-25T13:00:17.253Z,2140
2018-05-25T13:01:27.293Z,2105
2018-05-25T13:02:37.335Z,2030
2018-05-25T13:03:47.370Z,2040
2018-05-25T13:04:57.162Z,2000
2018-05-25T13:06:06.667Z,2080
2018-05-25T13:07:16.439Z,2255
2018-05-25T13:08:26.240Z,2455
2018-05-25T13:09:36.014Z,2825
2018-05-25T13:10:45.782Z,2910
2018-05-25T13:11:55.560Z,2820
2018-05-25T13:13:05.595Z,3235
2018-05-25T13:14:15.364Z,3845
2018-05-25T13:15:25.407Z,3530
2018-05-25T13:16:35.444Z,3185
2018-05-25T13:17:45.222Z,3230
2018-05-25T13:18:54.991Z,3140
2018-05-25T13:20:04.491Z,3240
2018-05-25T13:21:14.263Z,3375
2018-05-25T13:22:23.763Z,3635
2018-05-25T13:23:33.539Z,3450
2018-05-25T13:24:43.305Z,3250
2018-05-25T13:25:53.348Z,3580
2018-05-25T13:27:03.405Z,3770
2018-05-25T13:28:13.180Z,3520
2018-05-25T13:29:23.240Z,3350
2018-05-25T13:30:33.009Z,3520
2018-05-25T13:31:43.142Z,4005
2018-05-25T13:32:53.178Z,4125
2018-05-25T13:34:02.950Z,3925
2018-05-25T13:35:12.731Z,3465
2018-05-25T13:36:22.235Z,3470
2018-05-25T13:37:32.007Z,3480
2018-05-25T13:38:41.785Z,3495
2018-05-25T13:39:51.560Z,3615
2018-05-25T13:41:01.330Z,3710
2018-05-25T13:42:10.834Z,3510
2018-05-25T13:43:20.609Z,3440
2018-05-25T13:44:30.659Z,3480
2018-05-25T13:45:40.160Z,3485
2018-05-25T13:46:50.196Z,3495
2018-05-25T13:48:00.234Z,3590
2018-05-25T13:49:10.006Z,3530
2018-05-25T13:50:19.772Z,3565
2018-05-25T13:51:29.537Z,3510
2018-05-25T13:52:39.578Z,3420
2018-05-25T13:53:49.617Z,3585
2018-05-25T13:54:59.387Z,3340
2018-05-25T13:56:09.156Z,3440
2018-05-25T13:57:18.933Z,3585
2018-05-25T13:58:28.461Z,3665
2018-05-25T13:59:38.248Z,3670
2018-05-25T14:00:48.292Z,3515
2018-05-25T14:01:58.067Z,3380
2018-05-25T14:03:07.842Z,3495
2018-05-25T14:04:17.624Z,3575
2018-05-25T14:05:27.140Z,3630
2018-05-25T14:06:36.925Z,3530
2018-05-25T14:07:46.699Z,3425
2018-05-25T14:08:56.483Z,3430
2018-05-25T14:10:06.267Z,3435
2018-05-25T14:11:16.314Z,3295
2018-05-25T14:12:26.391Z,3275
2018-05-25T14:13:36.166Z,3250
2018-05-25T14:14:45.678Z,3165
2018-05-25T14:15:55.722Z,3280
2018-05-25T14:17:05.503Z,3475
2018-05-25T14:18:15.026Z,3335
2018-05-25T14:19:24.528Z,3160
2018-05-25T14:20:34.308Z,3175
2018-05-25T14:21:44.345Z,3135
2018-05-25T14:22:54.116Z,3270
2018-05-25T14:24:04.151Z,3325
2018-05-25T14:25:14.187Z,3250
2018-05-25T14:26:24.259Z,3170
2018-05-25T14:27:33.761Z,3180
2018-05-25T14:28:43.267Z,3280
2018-05-25T14:29:52.768Z,3200
2018-05-25T14:31:02.539Z,3300
2018-05-25T14:32:12.310Z,3295
2018-05-25T14:33:22.348Z,3170
2018-05-25T14:34:32.123Z,3030
2018-05-25T14:35:42.160Z,3165
2018-05-25T14:36:51.930Z,3110
2018-05-25T14:38:01.705Z,3035
2018-05-25T14:39:11.486Z,2985
2018-05-25T14:40:21.529Z,2910
2018-05-25T14:41:31.764Z,2860
2018-05-25T14:42:41.537Z,3000
2018-05-25T14:43:51.612Z,3070
2018-05-25T14:45:01.655Z,3045
2018-05-25T14:46:11.160Z,3105
2018-05-25T14:47:21.160Z,3020
2018-05-25T14:48:31.253Z,2875
2018-05-25T14:49:41.028Z,2745
2018-05-25T14:50:51.073Z,2775
2018-05-25T14:52:00.844Z,2785
2018-05-25T14:53:10.626Z,2545
2018-05-25T14:54:20.663Z,2665
2018-05-25T14:55:29.902Z,2830
2018-05-25T14:56:39.953Z,2760
2018-05-25T14:57:49.723Z,2705
2018-05-25T14:58:59.854Z,2760
2018-05-25T15:00:09.638Z,2925
2018-05-25T15:01:19.710Z,2870
2018-05-25T15:02:29.480Z,2795
2018-05-25T15:03:39.252Z,2855
2018-05-25T15:04:49.029Z,2890
2018-05-25T15:05:58.795Z,2875
2018-05-25T15:07:08.040Z,2795
2018-05-25T15:08:17.836Z,2655
2018-05-25T15:09:27.342Z,2785
2018-05-25T15:10:37.399Z,2725
2018-05-25T15:11:47.175Z,2700
2018-05-25T15:12:56.965Z,2760
2018-05-25T15:14:06.743Z,2700
2018-05-25T15:15:16.787Z,2715
2018-05-25T15:16:26.565Z,2685
2018-05-25T15:17:36.609Z,2610
2018-05-25T15:18:46.380Z,2680
2018-05-25T15:19:56.421Z,2745
2018-05-25T15:21:06.143Z,2760
2018-05-25T15:22:15.657Z,2800
2018-05-25T15:23:25.431Z,2760
2018-05-25T15:24:35.483Z,2630
2018-05-25T15:25:45.527Z,2585
2018-05-25T15:26:55.563Z,2690
2018-05-25T15:28:05.331Z,2695
2018-05-25T15:29:14.574Z,2555
2018-05-25T15:30:24.093Z,2510
2018-05-25T15:31:34.128Z,2615
2018-05-25T15:32:44.814Z,2640
2018-05-25T15:33:54.848Z,2540
2018-05-25T15:35:04.630Z,2530
2018-05-25T15:36:14.411Z,2615
2018-05-25T15:37:24.183Z,2655
2018-05-25T15:38:34.225Z,2665
2018-05-25T15:39:43.995Z,2640
2018-05-25T15:40:53.499Z,2585
2018-05-25T15:42:03.273Z,2550
2018-05-25T15:43:13.320Z,2460
2018-05-25T15:44:23.357Z,2550
2018-05-25T15:45:33.417Z,2485
2018-05-25T15:46:43.462Z,2515
2018-05-25T15:47:53.497Z,2630
2018-05-25T15:49:03.267Z,2650
2018-05-25T15:50:13.302Z,2525
2018-05-25T15:51:22.805Z,2570
2018-05-25T15:52:32.580Z,2250
2018-05-25T15:53:42.350Z,2180
2018-05-25T15:54:52.387Z,2260
2018-05-25T15:56:02.430Z,2225
2018-05-25T15:57:11.931Z,2235
2018-05-25T15:58:21.969Z,2285
2018-05-25T15:59:31.473Z,2405
2018-05-25T16:00:41.256Z,2100
2018-05-25T16:01:51.298Z,1305
2018-05-25T16:03:01.065Z,960
2018-05-25T16:04:10.836Z,1230
2018-05-25T16:05:20.880Z,1375
2018-05-25T16:06:30.643Z,1600